sensor_id;sensor_type;location;lat;lon;timestamp;pressure;altitude;pressure_sealevel;temperature;humidity
70127;BME280;57491;42.694;23.314;2023-02-19T00:00:12;95397.50;;;9.98;47.66
70127;BME280;57491;42.694;23.314;2023-02-19T00:02:41;95401.38;;;10.02;48.39
70127;BME280;57491;42.694;23.314;2023-02-19T00:05:10;95386.66;;;9.94;44.45
70127;BME280;57491;42.694;23.314;2023-02-19T00:07:37;95389.28;;;9.86;47.51
70127;BME280;57491;42.694;23.314;2023-02-19T00:10:04;95389.78;;;9.81;45.42
70127;BME280;57491;42.694;23.314;2023-02-19T00:12:31;95374.66;;;9.85;48.69
70127;BME280;57491;42.694;23.314;2023-02-19T00:15:00;95376.63;;;9.75;44.92
70127;BME280;57491;42.694;23.314;2023-02-19T00:17:27;95379.56;;;9.72;45.60
70127;BME280;57491;42.694;23.314;2023-02-19T00:19:54;95385.75;;;9.55;47.50
70127;BME280;57491;42.694;23.314;2023-02-19T00:22:21;95389.66;;;9.59;45.91
70127;BME280;57491;42.694;23.314;2023-02-19T00:24:48;95378.59;;;9.57;47.95
70127;BME280;57491;42.694;23.314;2023-02-19T00:27:15;95381.69;;;9.60;49.48
70127;BME280;57491;42.694;23.314;2023-02-19T00:29:42;95365.59;;;9.65;45.42
70127;BME280;57491;42.694;23.314;2023-02-19T00:32:10;95373.56;;;9.55;49.10
70127;BME280;57491;42.694;23.314;2023-02-19T00:34:38;95373.59;;;9.63;46.53
70127;BME280;57491;42.694;23.314;2023-02-19T00:37:05;95362.19;;;9.64;48.78
70127;BME280;57491;42.694;23.314;2023-02-19T00:39:32;95369.50;;;9.61;46.64
70127;BME280;57491;42.694;23.314;2023-02-19T00:41:59;95358.28;;;9.68;47.42
70127;BME280;57491;42.694;23.314;2023-02-19T00:44:26;95357.66;;;9.66;45.93
70127;BME280;57491;42.694;23.314;2023-02-19T00:46:53;95352.00;;;9.63;47.74
70127;BME280;57491;42.694;23.314;2023-02-19T00:49:22;95344.03;;;9.64;48.51
70127;BME280;57491;42.694;23.314;2023-02-19T00:51:51;95336.25;;;9.64;47.49
70127;BME280;57491;42.694;23.314;2023-02-19T00:54:19;95332.19;;;9.70;47.27
70127;BME280;57491;42.694;23.314;2023-02-19T00:56:47;95344.34;;;9.69;46.86
70127;BME280;57491;42.694;23.314;2023-02-19T00:59:14;95334.16;;;9.68;49.48
70127;BME280;57491;42.694;23.314;2023-02-19T01:01:42;95351.50;;;9.59;47.14
70127;BME280;57491;42.694;23.314;2023-02-19T01:04:10;95290.13;;;9.27;46.30
70127;BME280;57491;42.694;23.314;2023-02-19T01:06:38;95348.47;;;9.48;46.13
70127;BME280;57491;42.694;23.314;2023-02-19T01:09:06;95356.91;;;9.50;49.23
70127;BME280;57491;42.694;23.314;2023-02-19T01:11:33;95350.72;;;9.59;48.54
70127;BME280;57491;42.694;23.314;2023-02-19T01:14:01;95348.09;;;9.67;49.90
70127;BME280;57491;42.694;23.314;2023-02-19T01:16:29;95354.69;;;9.77;48.95
70127;BME280;57491;42.694;23.314;2023-02-19T01:18:57;95337.66;;;9.83;48.49
70127;BME280;57491;42.694;23.314;2023-02-19T01:21:25;95343.16;;;9.88;49.55
70127;BME280;57491;42.694;23.314;2023-02-19T01:23:53;95339.31;;;9.76;47.24
70127;BME280;57491;42.694;23.314;2023-02-19T01:26:24;95350.16;;;9.79;49.28
70127;BME280;57491;42.694;23.314;2023-02-19T01:28:51;95343.22;;;9.72;45.91
70127;BME280;57491;42.694;23.314;2023-02-19T01:31:20;95367.84;;;9.84;48.19
70127;BME280;57491;42.694;23.314;2023-02-19T01:33:49;95365.22;;;9.92;48.78
70127;BME280;57491;42.694;23.314;2023-02-19T01:36:17;95343.16;;;9.88;47.09
70127;BME280;57491;42.694;23.314;2023-02-19T01:38:45;95357.56;;;9.91;47.12
70127;BME280;57491;42.694;23.314;2023-02-19T01:41:15;95352.91;;;9.86;44.90
70127;BME280;57491;42.694;23.314;2023-02-19T01:43:55;95362.63;;;9.92;48.00
70127;BME280;57491;42.694;23.314;2023-02-19T01:46:24;95376.25;;;9.94;46.86
70127;BME280;57491;42.694;23.314;2023-02-19T01:48:52;95388.25;;;9.95;47.08
70127;BME280;57491;42.694;23.314;2023-02-19T01:51:20;95385.84;;;9.94;45.95
70127;BME280;57491;42.694;23.314;2023-02-19T01:53:51;95384.03;;;9.94;46.24
70127;BME280;57491;42.694;23.314;2023-02-19T01:56:21;95377.56;;;9.82;45.42
70127;BME280;57491;42.694;23.314;2023-02-19T01:58:49;95384.41;;;9.75;46.30
70127;BME280;57491;42.694;23.314;2023-02-19T02:01:16;95370.31;;;9.69;45.10
70127;BME280;57491;42.694;23.314;2023-02-19T02:03:46;95374.56;;;9.54;45.33
70127;BME280;57491;42.694;23.314;2023-02-19T02:06:16;95390.81;;;9.32;47.33
70127;BME280;57491;42.694;23.314;2023-02-19T02:08:45;95387.72;;;9.28;48.08
70127;BME280;57491;42.694;23.314;2023-02-19T02:11:31;95393.41;;;9.40;47.48
70127;BME280;57491;42.694;23.314;2023-02-19T02:13:59;95383.50;;;9.44;46.37
70127;BME280;57491;42.694;23.314;2023-02-19T02:16:31;95370.84;;;9.49;47.11
70127;BME280;57491;42.694;23.314;2023-02-19T02:19:09;95382.19;;;9.48;49.17
70127;BME280;57491;42.694;23.314;2023-02-19T02:21:54;95381.53;;;9.46;47.23
70127;BME280;57491;42.694;23.314;2023-02-19T02:24:51;95385.44;;;9.50;47.21
70127;BME280;57491;42.694;23.314;2023-02-19T02:27:40;95388.81;;;9.50;48.10
70127;BME280;57491;42.694;23.314;2023-02-19T02:30:16;95381.88;;;9.43;47.13
70127;BME280;57491;42.694;23.314;2023-02-19T02:32:53;95383.03;;;9.40;50.01
70127;BME280;57491;42.694;23.314;2023-02-19T02:35:25;95384.31;;;9.44;47.30
70127;BME280;57491;42.694;23.314;2023-02-19T02:37:57;95381.25;;;9.40;46.20
70127;BME280;57491;42.694;23.314;2023-02-19T02:40:26;95384.81;;;9.15;47.21
70127;BME280;57491;42.694;23.314;2023-02-19T02:42:56;95380.91;;;9.11;49.50
70127;BME280;57491;42.694;23.314;2023-02-19T02:45:28;95391.28;;;9.19;48.91
70127;BME280;57491;42.694;23.314;2023-02-19T02:48:08;95397.47;;;9.18;50.66
70127;BME280;57491;42.694;23.314;2023-02-19T02:50:39;95383.69;;;9.18;48.98
70127;BME280;57491;42.694;23.314;2023-02-19T02:53:14;95392.09;;;9.20;48.73
70127;BME280;57491;42.694;23.314;2023-02-19T02:56:01;95387.25;;;9.17;47.72
70127;BME280;57491;42.694;23.314;2023-02-19T02:58:30;95390.47;;;9.19;47.67
70127;BME280;57491;42.694;23.314;2023-02-19T03:01:02;95392.09;;;9.20;49.56
70127;BME280;57491;42.694;23.314;2023-02-19T03:03:51;95386.75;;;9.21;48.96
70127;BME280;57491;42.694;23.314;2023-02-19T03:06:21;95378.81;;;9.15;49.13
70127;BME280;57491;42.694;23.314;2023-02-19T03:08:55;95388.38;;;9.14;48.96
70127;BME280;57491;42.694;23.314;2023-02-19T03:11:23;95393.56;;;9.14;48.33
70127;BME280;57491;42.694;23.314;2023-02-19T03:14:12;95392.44;;;9.17;49.75
70127;BME280;57491;42.694;23.314;2023-02-19T03:17:05;95379.13;;;9.12;48.18
70127;BME280;57491;42.694;23.314;2023-02-19T03:19:55;95399.41;;;9.08;49.04
70127;BME280;57491;42.694;23.314;2023-02-19T03:22:26;95395.53;;;9.04;49.09
70127;BME280;57491;42.694;23.314;2023-02-19T03:24:58;95405.22;;;8.94;48.72
70127;BME280;57491;42.694;23.314;2023-02-19T03:27:45;95410.25;;;8.95;47.89
70127;BME280;57491;42.694;23.314;2023-02-19T03:30:16;95414.31;;;8.98;47.96
70127;BME280;57491;42.694;23.314;2023-02-19T03:32:48;95420.31;;;8.99;48.17
70127;BME280;57491;42.694;23.314;2023-02-19T03:35:20;95426.59;;;8.88;48.64
70127;BME280;57491;42.694;23.314;2023-02-19T03:37:52;95415.41;;;8.71;49.46
70127;BME280;57491;42.694;23.314;2023-02-19T03:40:25;95432.13;;;8.85;49.42
70127;BME280;57491;42.694;23.314;2023-02-19T03:42:59;95431.31;;;8.92;50.32
70127;BME280;57491;42.694;23.314;2023-02-19T03:45:36;95436.00;;;8.97;48.64
70127;BME280;57491;42.694;23.314;2023-02-19T03:48:19;95423.72;;;8.99;50.29
70127;BME280;57491;42.694;23.314;2023-02-19T03:50:54;95434.72;;;9.01;50.25
70127;BME280;57491;42.694;23.314;2023-02-19T03:53:30;95434.09;;;9.07;50.11
70127;BME280;57491;42.694;23.314;2023-02-19T03:56:06;95438.94;;;9.10;51.04
70127;BME280;57491;42.694;23.314;2023-02-19T03:58:43;95430.53;;;9.00;50.10
70127;BME280;57491;42.694;23.314;2023-02-19T04:01:18;95445.75;;;9.03;49.30
70127;BME280;57491;42.694;23.314;2023-02-19T04:03:51;95442.34;;;8.94;48.45
70127;BME280;57491;42.694;23.314;2023-02-19T04:06:25;95437.16;;;8.86;49.05
70127;BME280;57491;42.694;23.314;2023-02-19T04:08:55;95445.41;;;8.90;48.49
70127;BME280;57491;42.694;23.314;2023-02-19T04:11:26;95445.09;;;8.85;49.01
70127;BME280;57491;42.694;23.314;2023-02-19T04:13:57;95440.84;;;8.76;48.56
70127;BME280;57491;42.694;23.314;2023-02-19T04:16:28;95440.97;;;8.58;49.76
70127;BME280;57491;42.694;23.314;2023-02-19T04:19:01;95455.38;;;8.61;49.64
70127;BME280;57491;42.694;23.314;2023-02-19T04:21:31;95456.03;;;8.63;49.99
70127;BME280;57491;42.694;23.314;2023-02-19T04:24:03;95448.28;;;8.71;50.52
70127;BME280;57491;42.694;23.314;2023-02-19T04:26:34;95453.81;;;8.76;49.68
70127;BME280;57491;42.694;23.314;2023-02-19T04:29:01;95453.81;;;8.76;49.85
70127;BME280;57491;42.694;23.314;2023-02-19T04:31:29;95454.13;;;8.73;48.74
70127;BME280;57491;42.694;23.314;2023-02-19T04:34:01;95447.47;;;8.70;49.10
70127;BME280;57491;42.694;23.314;2023-02-19T04:36:29;95458.03;;;8.77;50.19
70127;BME280;57491;42.694;23.314;2023-02-19T04:38:56;95457.03;;;8.70;49.75
70127;BME280;57491;42.694;23.314;2023-02-19T04:41:23;95456.56;;;8.74;51.65
70127;BME280;57491;42.694;23.314;2023-02-19T04:43:50;95454.75;;;8.67;51.68
70127;BME280;57491;42.694;23.314;2023-02-19T04:46:17;95449.72;;;8.65;53.67
70127;BME280;57491;42.694;23.314;2023-02-19T04:48:44;95448.63;;;8.68;53.58
70127;BME280;57491;42.694;23.314;2023-02-19T04:51:13;95448.63;;;8.84;51.68
70127;BME280;57491;42.694;23.314;2023-02-19T04:53:40;95461.13;;;8.88;49.58
70127;BME280;57491;42.694;23.314;2023-02-19T04:56:09;95446.56;;;9.04;49.16
70127;BME280;57491;42.694;23.314;2023-02-19T04:58:36;95451.09;;;9.10;48.64
70127;BME280;57491;42.694;23.314;2023-02-19T05:01:03;95457.13;;;9.26;48.85
70127;BME280;57491;42.694;23.314;2023-02-19T05:03:31;95457.13;;;9.34;47.95
70127;BME280;57491;42.694;23.314;2023-02-19T05:06:01;95463.81;;;9.45;47.69
70127;BME280;57491;42.694;23.314;2023-02-19T05:08:30;95462.16;;;9.60;48.12
70127;BME280;57491;42.694;23.314;2023-02-19T05:10:57;95467.66;;;9.73;48.23
70127;BME280;57491;42.694;23.314;2023-02-19T05:13:24;95469.47;;;9.81;46.60
70127;BME280;57491;42.694;23.314;2023-02-19T05:15:56;95482.13;;;9.68;45.93
70127;BME280;57491;42.694;23.314;2023-02-19T05:18:23;95483.41;;;9.48;46.22
70127;BME280;57491;42.694;23.314;2023-02-19T05:20:51;95471.88;;;9.18;47.43
70127;BME280;57491;42.694;23.314;2023-02-19T05:23:19;95482.41;;;9.16;47.85
70127;BME280;57491;42.694;23.314;2023-02-19T05:25:48;95482.41;;;9.24;48.28
70127;BME280;57491;42.694;23.314;2023-02-19T05:28:16;95480.50;;;9.26;47.38
70127;BME280;57491;42.694;23.314;2023-02-19T05:30:43;95477.56;;;9.13;47.41
70127;BME280;57491;42.694;23.314;2023-02-19T05:33:11;95492.44;;;9.11;48.68
70127;BME280;57491;42.694;23.314;2023-02-19T05:35:40;95490.53;;;9.21;49.39
70127;BME280;57491;42.694;23.314;2023-02-19T05:38:08;95502.88;;;9.27;49.24
70127;BME280;57491;42.694;23.314;2023-02-19T05:40:35;95496.22;;;9.33;49.20
70127;BME280;57491;42.694;23.314;2023-02-19T05:43:04;95504.03;;;9.41;48.11
70127;BME280;57491;42.694;23.314;2023-02-19T05:45:32;95482.28;;;9.34;47.05
70127;BME280;57491;42.694;23.314;2023-02-19T05:47:59;95502.53;;;9.47;50.50
70127;BME280;57491;42.694;23.314;2023-02-19T05:50:27;95499.47;;;9.43;47.67
70127;BME280;57491;42.694;23.314;2023-02-19T05:52:54;95497.34;;;9.55;48.82
70127;BME280;57491;42.694;23.314;2023-02-19T05:55:21;95502.41;;;9.72;50.65
70127;BME280;57491;42.694;23.314;2023-02-19T05:57:48;95501.56;;;9.88;50.12
70127;BME280;57491;42.694;23.314;2023-02-19T06:00:18;95512.75;;;9.97;46.51
70127;BME280;57491;42.694;23.314;2023-02-19T06:02:46;95514.72;;;10.03;45.70
70127;BME280;57491;42.694;23.314;2023-02-19T06:05:13;95511.59;;;10.23;45.75
70127;BME280;57491;42.694;23.314;2023-02-19T06:07:40;95508.31;;;10.38;48.47
70127;BME280;57491;42.694;23.314;2023-02-19T06:10:08;95526.78;;;10.67;46.87
70127;BME280;57491;42.694;23.314;2023-02-19T06:12:36;95531.53;;;10.86;46.25
70127;BME280;57491;42.694;23.314;2023-02-19T06:15:03;95531.13;;;11.05;44.92
70127;BME280;57491;42.694;23.314;2023-02-19T06:17:33;95523.34;;;11.05;44.39
70127;BME280;57491;42.694;23.314;2023-02-19T06:20:00;95538.47;;;11.33;45.54
70127;BME280;57491;42.694;23.314;2023-02-19T06:22:27;95532.84;;;11.44;44.35
70127;BME280;57491;42.694;23.314;2023-02-19T06:24:55;95540.75;;;11.58;43.21
70127;BME280;57491;42.694;23.314;2023-02-19T06:27:22;95541.81;;;11.72;43.38
70127;BME280;57491;42.694;23.314;2023-02-19T06:29:49;95536.22;;;11.83;43.42
70127;BME280;57491;42.694;23.314;2023-02-19T06:32:16;95542.59;;;11.95;43.91
70127;BME280;57491;42.694;23.314;2023-02-19T06:34:45;95545.94;;;12.04;42.17
70127;BME280;57491;42.694;23.314;2023-02-19T06:37:12;95545.06;;;12.12;42.90
70127;BME280;57491;42.694;23.314;2023-02-19T06:39:38;95541.88;;;12.24;42.49
70127;BME280;57491;42.694;23.314;2023-02-19T06:42:06;95530.19;;;12.35;41.71
70127;BME280;57491;42.694;23.314;2023-02-19T06:44:32;95542.06;;;12.52;40.38
70127;BME280;57491;42.694;23.314;2023-02-19T06:47:00;95539.13;;;12.70;40.47
70127;BME280;57491;42.694;23.314;2023-02-19T06:49:27;95542.25;;;12.80;40.56
70127;BME280;57491;42.694;23.314;2023-02-19T06:51:55;95541.91;;;12.83;39.31
70127;BME280;57491;42.694;23.314;2023-02-19T06:54:23;95540.81;;;12.63;39.57
70127;BME280;57491;42.694;23.314;2023-02-19T06:56:51;95545.56;;;12.44;40.52
70127;BME280;57491;42.694;23.314;2023-02-19T06:59:18;95549.16;;;12.43;39.60
70127;BME280;57491;42.694;23.314;2023-02-19T07:01:45;95552.94;;;12.70;39.55
70127;BME280;57491;42.694;23.314;2023-02-19T07:04:12;95550.88;;;12.80;39.70
70127;BME280;57491;42.694;23.314;2023-02-19T07:06:40;95557.06;;;13.09;39.30
70127;BME280;57491;42.694;23.314;2023-02-19T07:09:09;95554.50;;;13.45;38.27
70127;BME280;57491;42.694;23.314;2023-02-19T07:11:38;95553.84;;;13.57;37.71
70127;BME280;57491;42.694;23.314;2023-02-19T07:14:06;95555.63;;;13.78;37.12
70127;BME280;57491;42.694;23.314;2023-02-19T07:16:34;95558.31;;;13.84;37.42
70127;BME280;57491;42.694;23.314;2023-02-19T07:19:02;95546.06;;;14.06;36.66
70127;BME280;57491;42.694;23.314;2023-02-19T07:21:29;95545.91;;;14.36;36.45
70127;BME280;57491;42.694;23.314;2023-02-19T07:23:57;95548.88;;;14.60;37.52
70127;BME280;57491;42.694;23.314;2023-02-19T07:26:25;95540.47;;;15.06;35.71
70127;BME280;57491;42.694;23.314;2023-02-19T07:28:52;95533.25;;;15.62;34.83
70127;BME280;57491;42.694;23.314;2023-02-19T07:31:22;95530.25;;;16.04;33.60
70127;BME280;57491;42.694;23.314;2023-02-19T07:33:49;95530.47;;;16.36;33.39
70127;BME280;57491;42.694;23.314;2023-02-19T07:36:18;95526.59;;;16.71;33.03
70127;BME280;57491;42.694;23.314;2023-02-19T07:38:45;95522.88;;;16.99;32.40
70127;BME280;57491;42.694;23.314;2023-02-19T07:41:12;95516.56;;;17.13;31.78
70127;BME280;57491;42.694;23.314;2023-02-19T07:43:40;95518.94;;;17.21;32.21
70127;BME280;57491;42.694;23.314;2023-02-19T07:46:09;95524.44;;;17.64;31.22
70127;BME280;57491;42.694;23.314;2023-02-19T07:48:37;95520.38;;;17.99;30.51
70127;BME280;57491;42.694;23.314;2023-02-19T07:51:06;95518.66;;;18.36;30.66
70127;BME280;57491;42.694;23.314;2023-02-19T07:53:34;95505.75;;;18.53;30.37
70127;BME280;57491;42.694;23.314;2023-02-19T07:56:03;95524.81;;;18.73;29.87
70127;BME280;57491;42.694;23.314;2023-02-19T07:58:30;95517.66;;;18.98;29.43
70127;BME280;57491;42.694;23.314;2023-02-19T08:01:07;95516.63;;;18.99;29.34
70127;BME280;57491;42.694;23.314;2023-02-19T08:03:35;95519.69;;;19.14;29.37
70127;BME280;57491;42.694;23.314;2023-02-19T08:06:01;95514.25;;;19.46;28.67
70127;BME280;57491;42.694;23.314;2023-02-19T08:08:27;95515.91;;;19.88;28.23
70127;BME280;57491;42.694;23.314;2023-02-19T08:10:58;95512.16;;;20.19;27.33
70127;BME280;57491;42.694;23.314;2023-02-19T08:13:43;95514.13;;;20.24;27.12
70127;BME280;57491;42.694;23.314;2023-02-19T08:16:13;95504.41;;;20.47;27.19
70127;BME280;57491;42.694;23.314;2023-02-19T08:18:42;95516.78;;;20.35;26.87
70127;BME280;57491;42.694;23.314;2023-02-19T08:21:09;95508.78;;;20.65;26.67
70127;BME280;57491;42.694;23.314;2023-02-19T08:23:37;95502.13;;;20.74;26.74
70127;BME280;57491;42.694;23.314;2023-02-19T08:26:04;95502.13;;;20.51;26.38
70127;BME280;57491;42.694;23.314;2023-02-19T08:28:32;95501.66;;;20.54;26.00
70127;BME280;57491;42.694;23.314;2023-02-19T08:31:00;95505.44;;;20.58;26.15
70127;BME280;57491;42.694;23.314;2023-02-19T08:33:31;95504.72;;;20.98;25.93
70127;BME280;57491;42.694;23.314;2023-02-19T08:36:01;95497.94;;;21.02;26.36
70127;BME280;57491;42.694;23.314;2023-02-19T08:38:29;95503.78;;;21.55;25.44
70127;BME280;57491;42.694;23.314;2023-02-19T08:40:57;95508.94;;;22.07;25.22
70127;BME280;57491;42.694;23.314;2023-02-19T08:43:24;95507.09;;;22.57;24.11
70127;BME280;57491;42.694;23.314;2023-02-19T08:45:52;95510.91;;;23.00;24.04
70127;BME280;57491;42.694;23.314;2023-02-19T08:48:19;95494.44;;;23.20;24.15
70127;BME280;57491;42.694;23.314;2023-02-19T08:51:00;95491.91;;;23.51;23.00
70127;BME280;57491;42.694;23.314;2023-02-19T08:53:29;95488.81;;;24.13;22.42
70127;BME280;57491;42.694;23.314;2023-02-19T08:55:57;95483.13;;;24.31;22.29
70127;BME280;57491;42.694;23.314;2023-02-19T08:58:24;95490.06;;;24.37;22.05
70127;BME280;57491;42.694;23.314;2023-02-19T09:00:51;95483.19;;;24.41;22.82
70127;BME280;57491;42.694;23.314;2023-02-19T09:03:18;95480.91;;;24.60;21.74
70127;BME280;57491;42.694;23.314;2023-02-19T09:05:45;95482.44;;;23.39;22.74
70127;BME280;57491;42.694;23.314;2023-02-19T09:08:14;95474.16;;;22.87;23.55
70127;BME280;57491;42.694;23.314;2023-02-19T09:10:41;95469.00;;;23.02;23.86
70127;BME280;57491;42.694;23.314;2023-02-19T09:13:08;95453.75;;;23.09;23.54
70127;BME280;57491;42.694;23.314;2023-02-19T09:15:36;95462.22;;;23.11;23.84
70127;BME280;57491;42.694;23.314;2023-02-19T09:18:03;95454.91;;;23.18;23.67
70127;BME280;57491;42.694;23.314;2023-02-19T09:20:30;95454.97;;;23.23;23.78
70127;BME280;57491;42.694;23.314;2023-02-19T09:22:58;95459.53;;;23.28;23.60
70127;BME280;57491;42.694;23.314;2023-02-19T09:25:26;95461.22;;;23.61;23.83
70127;BME280;57491;42.694;23.314;2023-02-19T09:27:54;95451.72;;;23.96;23.01
70127;BME280;57491;42.694;23.314;2023-02-19T09:30:21;95448.75;;;23.61;24.32
70127;BME280;57491;42.694;23.314;2023-02-19T09:32:48;95448.16;;;24.13;22.81
70127;BME280;57491;42.694;23.314;2023-02-19T09:35:15;95442.63;;;24.56;23.37
70127;BME280;57491;42.694;23.314;2023-02-19T09:37:42;95440.94;;;24.87;21.74
70127;BME280;57491;42.694;23.314;2023-02-19T09:40:09;95437.59;;;25.12;21.80
70127;BME280;57491;42.694;23.314;2023-02-19T09:42:39;95450.75;;;25.44;21.37
70127;BME280;57491;42.694;23.314;2023-02-19T09:45:12;95442.28;;;25.72;21.30
70127;BME280;57491;42.694;23.314;2023-02-19T09:47:41;95439.13;;;24.93;21.67
70127;BME280;57491;42.694;23.314;2023-02-19T09:50:11;95443.94;;;24.54;22.02
70127;BME280;57491;42.694;23.314;2023-02-19T09:52:42;95434.25;;;24.06;22.57
70127;BME280;57491;42.694;23.314;2023-02-19T09:55:14;95436.91;;;23.74;23.00
70127;BME280;57491;42.694;23.314;2023-02-19T09:57:44;95426.28;;;24.37;22.61
70127;BME280;57491;42.694;23.314;2023-02-19T10:00:19;95416.66;;;25.30;22.14
70127;BME280;57491;42.694;23.314;2023-02-19T10:02:50;95399.69;;;25.72;20.47
70127;BME280;57491;42.694;23.314;2023-02-19T10:05:17;95402.38;;;26.28;20.52
70127;BME280;57491;42.694;23.314;2023-02-19T10:07:45;95398.84;;;26.52;19.18
70127;BME280;57491;42.694;23.314;2023-02-19T10:10:35;95398.09;;;26.32;19.86
70127;BME280;57491;42.694;23.314;2023-02-19T10:13:17;95390.84;;;26.52;19.36
70127;BME280;57491;42.694;23.314;2023-02-19T10:15:47;95382.09;;;26.42;19.83
70127;BME280;57491;42.694;23.314;2023-02-19T10:18:17;95374.09;;;26.42;18.84
70127;BME280;57491;42.694;23.314;2023-02-19T10:20:45;95367.84;;;26.72;19.12
70127;BME280;57491;42.694;23.314;2023-02-19T10:23:13;95357.66;;;27.38;18.51
70127;BME280;57491;42.694;23.314;2023-02-19T10:25:45;95355.94;;;27.62;17.91
70127;BME280;57491;42.694;23.314;2023-02-19T10:28:16;95349.25;;;28.27;17.42
70127;BME280;57491;42.694;23.314;2023-02-19T10:30:49;95346.31;;;28.76;16.92
70127;BME280;57491;42.694;23.314;2023-02-19T10:33:17;95338.66;;;28.89;17.33
70127;BME280;57491;42.694;23.314;2023-02-19T10:35:53;95326.25;;;28.74;16.74
70127;BME280;57491;42.694;23.314;2023-02-19T10:38:23;95338.91;;;28.68;16.60
70127;BME280;57491;42.694;23.314;2023-02-19T10:40:58;95332.06;;;28.57;16.70
70127;BME280;57491;42.694;23.314;2023-02-19T10:43:29;95318.41;;;29.01;16.62
70127;BME280;57491;42.694;23.314;2023-02-19T10:46:00;95311.78;;;28.99;16.74
70127;BME280;57491;42.694;23.314;2023-02-19T10:48:30;95299.97;;;29.37;15.84
70127;BME280;57491;42.694;23.314;2023-02-19T10:51:00;95302.34;;;29.20;16.64
70127;BME280;57491;42.694;23.314;2023-02-19T10:53:41;95296.78;;;28.98;16.50
70127;BME280;57491;42.694;23.314;2023-02-19T10:56:12;95298.50;;;29.63;15.73
70127;BME280;57491;42.694;23.314;2023-02-19T10:58:42;95287.59;;;29.92;15.29
70127;BME280;57491;42.694;23.314;2023-02-19T11:01:17;95280.34;;;29.93;15.68
70127;BME280;57491;42.694;23.314;2023-02-19T11:03:49;95276.59;;;29.75;16.01
70127;BME280;57491;42.694;23.314;2023-02-19T11:06:18;95270.56;;;30.56;15.19
70127;BME280;57491;42.694;23.314;2023-02-19T11:08:50;95268.28;;;31.13;15.06
70127;BME280;57491;42.694;23.314;2023-02-19T11:11:36;95260.38;;;30.81;15.05
70127;BME280;57491;42.694;23.314;2023-02-19T11:14:14;95251.19;;;31.54;14.30
70127;BME280;57491;42.694;23.314;2023-02-19T11:16:44;95240.13;;;32.08;14.19
70127;BME280;57491;42.694;23.314;2023-02-19T11:19:32;95242.00;;;32.95;13.44
70127;BME280;57491;42.694;23.314;2023-02-19T11:22:28;95243.41;;;33.61;12.58
70127;BME280;57491;42.694;23.314;2023-02-19T11:25:02;95235.81;;;33.55;13.15
70127;BME280;57491;42.694;23.314;2023-02-19T11:27:31;95236.72;;;34.40;12.19
70127;BME280;57491;42.694;23.314;2023-02-19T11:30:25;95228.25;;;34.79;12.21
70127;BME280;57491;42.694;23.314;2023-02-19T11:33:16;95219.91;;;36.12;11.06
70127;BME280;57491;42.694;23.314;2023-02-19T11:35:47;95214.16;;;36.38;10.88
70127;BME280;57491;42.694;23.314;2023-02-19T11:38:15;95206.75;;;35.04;11.04
70127;BME280;57491;42.694;23.314;2023-02-19T11:40:44;95201.94;;;34.38;11.85
70127;BME280;57491;42.694;23.314;2023-02-19T11:43:27;95201.81;;;35.59;10.72
70127;BME280;57491;42.694;23.314;2023-02-19T11:46:02;95198.56;;;36.72;10.33
70127;BME280;57491;42.694;23.314;2023-02-19T11:51:43;95193.94;;;38.77;8.95
70127;BME280;57491;42.694;23.314;2023-02-19T11:54:22;95193.22;;;38.61;8.82
70127;BME280;57491;42.694;23.314;2023-02-19T11:57:03;95189.13;;;38.20;9.41
70127;BME280;57491;42.694;23.314;2023-02-19T11:59:35;95185.91;;;39.00;8.91
70127;BME280;57491;42.694;23.314;2023-02-19T12:02:32;95176.75;;;37.32;9.12
70127;BME280;57491;42.694;23.314;2023-02-19T12:05:20;95160.66;;;35.54;11.06
70127;BME280;57491;42.694;23.314;2023-02-19T12:08:15;95168.53;;;35.79;10.22
70127;BME280;57491;42.694;23.314;2023-02-19T12:10:57;95163.09;;;35.67;10.52
70127;BME280;57491;42.694;23.314;2023-02-19T12:13:37;95156.59;;;35.93;9.93
70127;BME280;57491;42.694;23.314;2023-02-19T12:16:15;95147.47;;;36.98;9.78
70127;BME280;57491;42.694;23.314;2023-02-19T12:19:20;95143.56;;;37.23;9.27
70127;BME280;57491;42.694;23.314;2023-02-19T12:22:05;95139.34;;;37.26;10.01
70127;BME280;57491;42.694;23.314;2023-02-19T12:24:55;95138.38;;;38.75;8.86
70127;BME280;57491;42.694;23.314;2023-02-19T12:27:34;95129.38;;;40.16;7.51
70127;BME280;57491;42.694;23.314;2023-02-19T12:30:20;95129.13;;;40.77;7.55
70127;BME280;57491;42.694;23.314;2023-02-19T12:33:27;95117.72;;;41.35;7.66
70127;BME280;57491;42.694;23.314;2023-02-19T12:36:05;95109.59;;;41.38;6.79
70127;BME280;57491;42.694;23.314;2023-02-19T12:38:42;95108.72;;;42.12;7.26
70127;BME280;57491;42.694;23.314;2023-02-19T12:41:20;95101.25;;;42.63;6.68
70127;BME280;57491;42.694;23.314;2023-02-19T12:43:53;95097.38;;;42.64;6.70
70127;BME280;57491;42.694;23.314;2023-02-19T12:46:28;95094.28;;;42.69;6.54
70127;BME280;57491;42.694;23.314;2023-02-19T12:49:02;95084.59;;;42.83;6.20
70127;BME280;57491;42.694;23.314;2023-02-19T12:51:38;95084.44;;;42.00;6.56
70127;BME280;57491;42.694;23.314;2023-02-19T12:54:12;95076.75;;;42.16;6.90
70127;BME280;57491;42.694;23.314;2023-02-19T12:56:44;95070.22;;;42.27;6.81
70127;BME280;57491;42.694;23.314;2023-02-19T12:59:15;95063.97;;;43.06;6.38
70127;BME280;57491;42.694;23.314;2023-02-19T13:01:50;95060.72;;;42.80;6.80
70127;BME280;57491;42.694;23.314;2023-02-19T13:04:24;95061.44;;;42.66;6.43
70127;BME280;57491;42.694;23.314;2023-02-19T13:06:57;95049.47;;;42.23;6.77
70127;BME280;57491;42.694;23.314;2023-02-19T13:09:30;95048.47;;;41.87;6.63
70127;BME280;57491;42.694;23.314;2023-02-19T13:12:04;95037.16;;;41.45;6.66
70127;BME280;57491;42.694;23.314;2023-02-19T13:14:34;95041.47;;;41.93;6.79
70127;BME280;57491;42.694;23.314;2023-02-19T13:17:07;95037.72;;;42.91;5.97
70127;BME280;57491;42.694;23.314;2023-02-19T13:19:39;95029.31;;;42.42;6.00